sensor_id;sensor_type;location;lat;lon;timestamp;temperature;humidity
20862;DHT22;10591;52.532;13.348;2023-12-20T00:01:54;6.70;90.98
20862;DHT22;10591;52.532;13.348;2023-12-20T00:04:24;6.68;91.07
20862;DHT22;10591;52.532;13.348;2023-12-20T00:06:55;6.66;90.89
20862;DHT22;10591;52.532;13.348;2023-12-20T00:09:26;6.70;90.85
20862;DHT22;10591;52.532;13.348;2023-12-20T00:11:56;6.70;90.70
20862;DHT22;10591;52.532;13.348;2023-12-20T00:14:27;6.66;90.96
20862;DHT22;10591;52.532;13.348;2023-12-20T00:16:58;6.70;91.02
20862;DHT22;10591;52.532;13.348;2023-12-20T00:19:28;6.69;90.90
20862;DHT22;10591;52.532;13.348;2023-12-20T00:21:59;6.72;90.92
20862;DHT22;10591;52.532;13.348;2023-12-20T00:24:30;6.70;90.92
20862;DHT22;10591;52.532;13.348;2023-12-20T00:27:01;6.78;90.77
20862;DHT22;10591;52.532;13.348;2023-12-20T00:29:32;6.69;90.61
20862;DHT22;10591;52.532;13.348;2023-12-20T00:32:03;6.66;90.93
20862;DHT22;10591;52.532;13.348;2023-12-20T00:34:34;6.70;90.90
20862;DHT22;10591;52.532;13.348;2023-12-20T00:37:04;6.70;90.73
20862;DHT22;10591;52.532;13.348;2023-12-20T00:39:35;6.62;90.96
20862;DHT22;10591;52.532;13.348;2023-12-20T00:42:06;6.64;91.09
20862;DHT22;10591;52.532;13.348;2023-12-20T00:44:38;6.66;90.99
20862;DHT22;10591;52.532;13.348;2023-12-20T00:47:11;6.65;91.25
20862;DHT22;10591;52.532;13.348;2023-12-20T00:49:43;6.68;91.28
20862;DHT22;10591;52.532;13.348;2023-12-20T00:52:13;6.69;90.79
20862;DHT22;10591;52.532;13.348;2023-12-20T00:54:45;6.60;90.91
20862;DHT22;10591;52.532;13.348;2023-12-20T00:57:17;6.69;90.94
20862;DHT22;10591;52.532;13.348;2023-12-20T00:59:47;6.59;91.00
20862;DHT22;10591;52.532;13.348;2023-12-20T01:02:18;6.59;91.30
20862;DHT22;10591;52.532;13.348;2023-12-20T01:04:49;6.62;91.17
20862;DHT22;10591;52.532;13.348;2023-12-20T01:07:21;6.64;91.50
20862;DHT22;10591;52.532;13.348;2023-12-20T01:09:52;6.77;91.32
20862;DHT22;10591;52.532;13.348;2023-12-20T01:12:24;6.62;91.24
20862;DHT22;10591;52.532;13.348;2023-12-20T01:14:55;6.66;91.19
20862;DHT22;10591;52.532;13.348;2023-12-20T01:17:27;6.72;91.07
20862;DHT22;10591;52.532;13.348;2023-12-20T01:19:58;6.68;90.98
20862;DHT22;10591;52.532;13.348;2023-12-20T01:22:29;6.68;91.19
20862;DHT22;10591;52.532;13.348;2023-12-20T01:25:02;6.62;91.51
20862;DHT22;10591;52.532;13.348;2023-12-20T01:27:34;6.59;91.55
20862;DHT22;10591;52.532;13.348;2023-12-20T01:30:05;6.60;91.51
20862;DHT22;10591;52.532;13.348;2023-12-20T01:32:37;6.66;91.48
20862;DHT22;10591;52.532;13.348;2023-12-20T01:35:08;6.76;91.54
20862;DHT22;10591;52.532;13.348;2023-12-20T01:37:40;6.60;91.55
20862;DHT22;10591;52.532;13.348;2023-12-20T01:40:12;6.63;91.73
20862;DHT22;10591;52.532;13.348;2023-12-20T01:42:43;6.61;91.70
20862;DHT22;10591;52.532;13.348;2023-12-20T01:45:13;6.74;91.63
20862;DHT22;10591;52.532;13.348;2023-12-20T01:47:44;6.58;91.82
20862;DHT22;10591;52.532;13.348;2023-12-20T01:50:15;6.60;91.89
20862;DHT22;10591;52.532;13.348;2023-12-20T01:52:46;6.64;92.01
20862;DHT22;10591;52.532;13.348;2023-12-20T01:55:18;6.58;92.01
20862;DHT22;10591;52.532;13.348;2023-12-20T01:57:52;6.62;92.10
20862;DHT22;10591;52.532;13.348;2023-12-20T02:00:23;6.64;92.11
20862;DHT22;10591;52.532;13.348;2023-12-20T02:02:56;6.54;92.23
20862;DHT22;10591;52.532;13.348;2023-12-20T02:05:31;6.53;91.92
20862;DHT22;10591;52.532;13.348;2023-12-20T02:08:02;6.53;91.45
20862;DHT22;10591;52.532;13.348;2023-12-20T02:10:35;6.44;91.46
20862;DHT22;10591;52.532;13.348;2023-12-20T02:13:07;6.44;91.42
20862;DHT22;10591;52.532;13.348;2023-12-20T02:15:38;6.48;91.33
20862;DHT22;10591;52.532;13.348;2023-12-20T02:18:11;6.35;91.51
20862;DHT22;10591;52.532;13.348;2023-12-20T02:20:45;6.41;91.37
20862;DHT22;10591;52.532;13.348;2023-12-20T02:23:15;6.45;91.43
20862;DHT22;10591;52.532;13.348;2023-12-20T02:25:47;6.43;91.38
20862;DHT22;10591;52.532;13.348;2023-12-20T02:28:22;6.34;91.65
20862;DHT22;10591;52.532;13.348;2023-12-20T02:30:54;6.35;91.81
20862;DHT22;10591;52.532;13.348;2023-12-20T02:33:25;6.38;91.87
20862;DHT22;10591;52.532;13.348;2023-12-20T02:35:57;6.43;92.02
20862;DHT22;10591;52.532;13.348;2023-12-20T02:38:27;6.51;91.82
20862;DHT22;10591;52.532;13.348;2023-12-20T02:40:58;6.50;91.91
20862;DHT22;10591;52.532;13.348;2023-12-20T02:43:29;6.54;91.80
20862;DHT22;10591;52.532;13.348;2023-12-20T02:46:01;6.52;91.72
20862;DHT22;10591;52.532;13.348;2023-12-20T02:48:34;6.50;91.61
20862;DHT22;10591;52.532;13.348;2023-12-20T02:51:05;6.52;91.36
20862;DHT22;10591;52.532;13.348;2023-12-20T02:53:36;6.48;91.56
20862;DHT22;10591;52.532;13.348;2023-12-20T02:56:10;6.44;91.68
20862;DHT22;10591;52.532;13.348;2023-12-20T02:58:41;6.46;91.56
20862;DHT22;10591;52.532;13.348;2023-12-20T03:01:12;6.40;91.48
20862;DHT22;10591;52.532;13.348;2023-12-20T03:03:44;6.36;91.49
20862;DHT22;10591;52.532;13.348;2023-12-20T03:06:19;6.30;91.56
20862;DHT22;10591;52.532;13.348;2023-12-20T03:08:50;6.30;91.44
20862;DHT22;10591;52.532;13.348;2023-12-20T03:11:20;6.28;91.55
20862;DHT22;10591;52.532;13.348;2023-12-20T03:13:51;6.29;91.47
20862;DHT22;10591;52.532;13.348;2023-12-20T03:16:26;6.31;91.48
20862;DHT22;10591;52.532;13.348;2023-12-20T03:18:57;6.22;91.20
20862;DHT22;10591;52.532;13.348;2023-12-20T03:21:27;6.20;91.34
20862;DHT22;10591;52.532;13.348;2023-12-20T03:23:59;6.12;91.21
20862;DHT22;10591;52.532;13.348;2023-12-20T03:26:29;6.07;91.37
20862;DHT22;10591;52.532;13.348;2023-12-20T03:29:00;6.08;91.33
20862;DHT22;10591;52.532;13.348;2023-12-20T03:31:30;6.04;91.44
20862;DHT22;10591;52.532;13.348;2023-12-20T03:34:01;6.04;91.40
20862;DHT22;10591;52.532;13.348;2023-12-20T03:36:33;6.18;91.27
20862;DHT22;10591;52.532;13.348;2023-12-20T03:39:04;6.09;91.37
20862;DHT22;10591;52.532;13.348;2023-12-20T03:41:36;6.10;91.29
20862;DHT22;10591;52.532;13.348;2023-12-20T03:44:06;6.19;91.06
20862;DHT22;10591;52.532;13.348;2023-12-20T03:46:37;6.15;91.09
20862;DHT22;10591;52.532;13.348;2023-12-20T03:49:09;6.07;90.94
20862;DHT22;10591;52.532;13.348;2023-12-20T03:51:39;6.08;90.83
20862;DHT22;10591;52.532;13.348;2023-12-20T03:54:11;6.01;90.93
20862;DHT22;10591;52.532;13.348;2023-12-20T03:56:42;5.94;91.10
20862;DHT22;10591;52.532;13.348;2023-12-20T03:59:12;5.98;90.88
20862;DHT22;10591;52.532;13.348;2023-12-20T04:01:44;5.87;90.68
20862;DHT22;10591;52.532;13.348;2023-12-20T04:04:14;5.87;90.64
20862;DHT22;10591;52.532;13.348;2023-12-20T04:06:45;5.84;90.63
20862;DHT22;10591;52.532;13.348;2023-12-20T04:09:16;5.88;90.64
20862;DHT22;10591;52.532;13.348;2023-12-20T04:11:47;5.85;90.61
20862;DHT22;10591;52.532;13.348;2023-12-20T04:14:17;5.81;90.66
20862;DHT22;10591;52.532;13.348;2023-12-20T04:16:48;5.73;90.75
20862;DHT22;10591;52.532;13.348;2023-12-20T04:19:18;5.72;90.70
20862;DHT22;10591;52.532;13.348;2023-12-20T04:21:51;5.63;90.81
20862;DHT22;10591;52.532;13.348;2023-12-20T04:24:24;5.66;90.84
20862;DHT22;10591;52.532;13.348;2023-12-20T04:26:56;5.60;90.54
20862;DHT22;10591;52.532;13.348;2023-12-20T04:29:26;5.64;90.50
20862;DHT22;10591;52.532;13.348;2023-12-20T04:31:57;5.66;90.37
20862;DHT22;10591;52.532;13.348;2023-12-20T04:34:28;5.55;90.17
20862;DHT22;10591;52.532;13.348;2023-12-20T04:37:00;5.50;90.19
20862;DHT22;10591;52.532;13.348;2023-12-20T04:39:31;5.56;90.30
20862;DHT22;10591;52.532;13.348;2023-12-20T04:42:03;5.42;90.43
20862;DHT22;10591;52.532;13.348;2023-12-20T04:44:33;5.42;90.50
20862;DHT22;10591;52.532;13.348;2023-12-20T04:47:04;5.38;90.46
20862;DHT22;10591;52.532;13.348;2023-12-20T04:49:38;5.44;90.55
20862;DHT22;10591;52.532;13.348;2023-12-20T04:52:12;5.34;90.80
20862;DHT22;10591;52.532;13.348;2023-12-20T04:54:42;5.40;90.51
20862;DHT22;10591;52.532;13.348;2023-12-20T04:57:14;5.38;90.42
20862;DHT22;10591;52.532;13.348;2023-12-20T04:59:47;5.44;90.13
20862;DHT22;10591;52.532;13.348;2023-12-20T05:02:18;5.44;90.03
20862;DHT22;10591;52.532;13.348;2023-12-20T05:04:50;5.44;90.10
20862;DHT22;10591;52.532;13.348;2023-12-20T05:07:22;5.52;89.77
20862;DHT22;10591;52.532;13.348;2023-12-20T05:09:53;5.60;89.81
20862;DHT22;10591;52.532;13.348;2023-12-20T05:12:23;5.51;89.86
20862;DHT22;10591;52.532;13.348;2023-12-20T05:14:54;5.60;89.34
20862;DHT22;10591;52.532;13.348;2023-12-20T05:17:25;5.52;89.46
20862;DHT22;10591;52.532;13.348;2023-12-20T05:19:55;5.38;89.68
20862;DHT22;10591;52.532;13.348;2023-12-20T05:22:27;5.40;89.61
20862;DHT22;10591;52.532;13.348;2023-12-20T05:24:57;5.28;89.80
20862;DHT22;10591;52.532;13.348;2023-12-20T05:27:30;5.28;89.75
20862;DHT22;10591;52.532;13.348;2023-12-20T05:30:01;5.21;89.56
20862;DHT22;10591;52.532;13.348;2023-12-20T05:32:31;5.16;89.55
20862;DHT22;10591;52.532;13.348;2023-12-20T05:35:02;5.12;89.82
20862;DHT22;10591;52.532;13.348;2023-12-20T05:37:33;5.20;89.39
20862;DHT22;10591;52.532;13.348;2023-12-20T05:40:04;5.13;89.48
20862;DHT22;10591;52.532;13.348;2023-12-20T05:42:37;5.06;89.51
20862;DHT22;10591;52.532;13.348;2023-12-20T05:45:09;5.22;89.31
20862;DHT22;10591;52.532;13.348;2023-12-20T05:47:41;5.17;89.03
20862;DHT22;10591;52.532;13.348;2023-12-20T05:50:12;5.15;88.98
20862;DHT22;10591;52.532;13.348;2023-12-20T05:52:43;4.92;89.53
20862;DHT22;10591;52.532;13.348;2023-12-20T05:55:13;5.02;89.26
20862;DHT22;10591;52.532;13.348;2023-12-20T05:57:44;4.94;89.10
20862;DHT22;10591;52.532;13.348;2023-12-20T06:00:16;4.96;89.20
20862;DHT22;10591;52.532;13.348;2023-12-20T06:02:47;5.00;89.23
20862;DHT22;10591;52.532;13.348;2023-12-20T06:05:18;4.95;89.13
20862;DHT22;10591;52.532;13.348;2023-12-20T06:07:49;5.07;88.96
20862;DHT22;10591;52.532;13.348;2023-12-20T06:10:20;5.01;89.00
20862;DHT22;10591;52.532;13.348;2023-12-20T06:12:52;5.03;88.89
20862;DHT22;10591;52.532;13.348;2023-12-20T06:15:23;4.95;88.93
20862;DHT22;10591;52.532;13.348;2023-12-20T06:17:54;5.03;88.52
20862;DHT22;10591;52.532;13.348;2023-12-20T06:20:25;5.00;88.73
20862;DHT22;10591;52.532;13.348;2023-12-20T06:22:55;5.00;88.60
20862;DHT22;10591;52.532;13.348;2023-12-20T06:25:26;5.00;88.90
20862;DHT22;10591;52.532;13.348;2023-12-20T06:27:57;4.92;89.25
20862;DHT22;10591;52.532;13.348;2023-12-20T06:30:28;5.11;88.67
20862;DHT22;10591;52.532;13.348;2023-12-20T06:32:59;5.04;88.74
20862;DHT22;10591;52.532;13.348;2023-12-20T06:35:30;5.14;88.46
20862;DHT22;10591;52.532;13.348;2023-12-20T06:38:04;5.04;88.63
20862;DHT22;10591;52.532;13.348;2023-12-20T06:40:34;5.11;88.76
20862;DHT22;10591;52.532;13.348;2023-12-20T06:43:06;5.15;88.59
20862;DHT22;10591;52.532;13.348;2023-12-20T06:45:39;5.28;88.23
20862;DHT22;10591;52.532;13.348;2023-12-20T06:48:11;5.06;88.57
20862;DHT22;10591;52.532;13.348;2023-12-20T06:50:43;5.10;88.12
20862;DHT22;10591;52.532;13.348;2023-12-20T06:53:14;5.06;88.37
20862;DHT22;10591;52.532;13.348;2023-12-20T06:55:47;5.12;88.26
20862;DHT22;10591;52.532;13.348;2023-12-20T06:58:18;5.16;88.31
20862;DHT22;10591;52.532;13.348;2023-12-20T07:00:50;5.13;88.41
20862;DHT22;10591;52.532;13.348;2023-12-20T07:03:21;5.06;88.57
20862;DHT22;10591;52.532;13.348;2023-12-20T07:05:52;5.12;88.28
20862;DHT22;10591;52.532;13.348;2023-12-20T07:08:22;5.17;88.05
20862;DHT22;10591;52.532;13.348;2023-12-20T07:10:54;5.24;88.05
20862;DHT22;10591;52.532;13.348;2023-12-20T07:13:25;5.21;87.86
20862;DHT22;10591;52.532;13.348;2023-12-20T07:15:55;5.22;87.78
20862;DHT22;10591;52.532;13.348;2023-12-20T07:18:26;5.34;87.59
20862;DHT22;10591;52.532;13.348;2023-12-20T07:20:57;5.22;87.91
20862;DHT22;10591;52.532;13.348;2023-12-20T07:23:28;5.31;87.45
20862;DHT22;10591;52.532;13.348;2023-12-20T07:26:00;5.28;87.44
20862;DHT22;10591;52.532;13.348;2023-12-20T07:28:30;5.29;87.36
20862;DHT22;10591;52.532;13.348;2023-12-20T07:31:01;5.36;87.04
20862;DHT22;10591;52.532;13.348;2023-12-20T07:33:33;5.34;87.06
20862;DHT22;10591;52.532;13.348;2023-12-20T07:36:06;5.36;86.97
20862;DHT22;10591;52.532;13.348;2023-12-20T07:38:39;5.32;87.14
20862;DHT22;10591;52.532;13.348;2023-12-20T07:41:12;5.28;87.35
20862;DHT22;10591;52.532;13.348;2023-12-20T07:43:43;5.26;87.15
20862;DHT22;10591;52.532;13.348;2023-12-20T07:46:14;5.30;86.82
20862;DHT22;10591;52.532;13.348;2023-12-20T07:48:45;5.36;86.75
20862;DHT22;10591;52.532;13.348;2023-12-20T07:51:16;5.36;86.58
20862;DHT22;10591;52.532;13.348;2023-12-20T07:53:46;5.34;86.57
20862;DHT22;10591;52.532;13.348;2023-12-20T07:56:19;5.35;86.61
20862;DHT22;10591;52.532;13.348;2023-12-20T07:58:50;5.33;86.52
20862;DHT22;10591;52.532;13.348;2023-12-20T08:01:22;5.36;86.72
20862;DHT22;10591;52.532;13.348;2023-12-20T08:03:56;5.46;86.15
20862;DHT22;10591;52.532;13.348;2023-12-20T08:06:27;5.50;85.77
20862;DHT22;10591;52.532;13.348;2023-12-20T08:08:58;5.50;85.67
20862;DHT22;10591;52.532;13.348;2023-12-20T08:11:30;5.52;85.97
20862;DHT22;10591;52.532;13.348;2023-12-20T08:14:01;5.53;85.76
20862;DHT22;10591;52.532;13.348;2023-12-20T08:16:32;5.46;86.10
20862;DHT22;10591;52.532;13.348;2023-12-20T08:19:02;5.49;85.66
20862;DHT22;10591;52.532;13.348;2023-12-20T08:21:34;5.43;86.09
20862;DHT22;10591;52.532;13.348;2023-12-20T08:24:08;5.48;85.86
20862;DHT22;10591;52.532;13.348;2023-12-20T08:26:38;5.52;85.87
20862;DHT22;10591;52.532;13.348;2023-12-20T08:29:09;5.49;85.84
20862;DHT22;10591;52.532;13.348;2023-12-20T08:31:40;5.62;86.09
20862;DHT22;10591;52.532;13.348;2023-12-20T08:34:13;5.61;85.94
20862;DHT22;10591;52.532;13.348;2023-12-20T08:36:44;5.66;85.34
20862;DHT22;10591;52.532;13.348;2023-12-20T08:39:18;5.70;85.28
20862;DHT22;10591;52.532;13.348;2023-12-20T08:41:51;5.74;85.16
20862;DHT22;10591;52.532;13.348;2023-12-20T08:44:22;5.82;84.80
20862;DHT22;10591;52.532;13.348;2023-12-20T08:46:52;6.01;84.23
20862;DHT22;10591;52.532;13.348;2023-12-20T08:49:23;5.97;84.20
20862;DHT22;10591;52.532;13.348;2023-12-20T08:51:58;6.12;83.66
20862;DHT22;10591;52.532;13.348;2023-12-20T08:54:29;6.08;84.48
20862;DHT22;10591;52.532;13.348;2023-12-20T08:57:00;6.04;84.79
20862;DHT22;10591;52.532;13.348;2023-12-20T08:59:30;6.20;83.72
20862;DHT22;10591;52.532;13.348;2023-12-20T09:02:01;5.98;83.88
20862;DHT22;10591;52.532;13.348;2023-12-20T09:04:32;5.96;83.33
20862;DHT22;10591;52.532;13.348;2023-12-20T09:07:06;6.11;83.50
20862;DHT22;10591;52.532;13.348;2023-12-20T09:09:37;6.28;82.80
20862;DHT22;10591;52.532;13.348;2023-12-20T09:12:08;6.42;82.45
20862;DHT22;10591;52.532;13.348;2023-12-20T09:14:39;6.28;82.52
20862;DHT22;10591;52.532;13.348;2023-12-20T09:17:10;6.32;82.78
20862;DHT22;10591;52.532;13.348;2023-12-20T09:19:42;6.36;82.32
20862;DHT22;10591;52.532;13.348;2023-12-20T09:22:14;6.28;82.32
20862;DHT22;10591;52.532;13.348;2023-12-20T09:24:45;6.32;82.20
20862;DHT22;10591;52.532;13.348;2023-12-20T09:27:16;6.31;82.35
20862;DHT22;10591;52.532;13.348;2023-12-20T09:29:48;6.26;82.67
20862;DHT22;10591;52.532;13.348;2023-12-20T09:32:20;6.19;83.24
20862;DHT22;10591;52.532;13.348;2023-12-20T09:34:50;6.32;83.39
20862;DHT22;10591;52.532;13.348;2023-12-20T09:37:21;6.22;83.67
20862;DHT22;10591;52.532;13.348;2023-12-20T09:39:55;6.25;83.43
20862;DHT22;10591;52.532;13.348;2023-12-20T09:45:31;6.45;82.33
20862;DHT22;10591;52.532;13.348;2023-12-20T09:48:05;6.30;82.13
20862;DHT22;10591;52.532;13.348;2023-12-20T09:50:36;6.35;82.31
20862;DHT22;10591;52.532;13.348;2023-12-20T09:53:09;6.38;82.23
20862;DHT22;10591;52.532;13.348;2023-12-20T09:55:41;6.32;81.60
20862;DHT22;10591;52.532;13.348;2023-12-20T09:58:12;6.33;81.27
20862;DHT22;10591;52.532;13.348;2023-12-20T10:00:44;6.38;81.94
20862;DHT22;10591;52.532;13.348;2023-12-20T10:03:16;6.42;81.60
20862;DHT22;10591;52.532;13.348;2023-12-20T10:05:51;6.49;81.35
20862;DHT22;10591;52.532;13.348;2023-12-20T10:08:24;6.38;81.76
20862;DHT22;10591;52.532;13.348;2023-12-20T10:10:55;6.50;81.14
20862;DHT22;10591;52.532;13.348;2023-12-20T10:13:27;6.38;81.50
20862;DHT22;10591;52.532;13.348;2023-12-20T10:15:59;6.51;81.05
20862;DHT22;10591;52.532;13.348;2023-12-20T10:18:30;6.54;80.80
20862;DHT22;10591;52.532;13.348;2023-12-20T10:21:03;6.48;81.31
20862;DHT22;10591;52.532;13.348;2023-12-20T10:23:33;6.48;80.88
20862;DHT22;10591;52.532;13.348;2023-12-20T10:26:06;6.42;81.15
20862;DHT22;10591;52.532;13.348;2023-12-20T10:28:37;6.45;81.03
20862;DHT22;10591;52.532;13.348;2023-12-20T10:31:08;6.40;80.65
20862;DHT22;10591;52.532;13.348;2023-12-20T10:33:40;6.44;80.31
20862;DHT22;10591;52.532;13.348;2023-12-20T10:36:12;6.46;80.72
20862;DHT22;10591;52.532;13.348;2023-12-20T10:38:44;6.50;80.59
20862;DHT22;10591;52.532;13.348;2023-12-20T10:41:18;6.49;81.24
20862;DHT22;10591;52.532;13.348;2023-12-20T10:43:50;6.55;81.04
20862;DHT22;10591;52.532;13.348;2023-12-20T10:46:21;6.60;81.05
20862;DHT22;10591;52.532;13.348;2023-12-20T10:48:57;6.60;80.71
20862;DHT22;10591;52.532;13.348;2023-12-20T10:51:29;6.61;80.34
20862;DHT22;10591;52.532;13.348;2023-12-20T10:54:00;6.64;80.15
20862;DHT22;10591;52.532;13.348;2023-12-20T10:56:32;6.66;80.39
20862;DHT22;10591;52.532;13.348;2023-12-20T10:59:07;6.76;79.54
20862;DHT22;10591;52.532;13.348;2023-12-20T11:01:42;6.60;80.21
20862;DHT22;10591;52.532;13.348;2023-12-20T11:04:15;6.76;79.76
20862;DHT22;10591;52.532;13.348;2023-12-20T11:06:53;6.72;79.42
20862;DHT22;10591;52.532;13.348;2023-12-20T11:09:34;6.81;79.07
20862;DHT22;10591;52.532;13.348;2023-12-20T11:14:53;6.58;80.76
20862;DHT22;10591;52.532;13.348;2023-12-20T11:17:27;6.51;81.81
20862;DHT22;10591;52.532;13.348;2023-12-20T11:22:32;6.61;81.14
20862;DHT22;10591;52.532;13.348;2023-12-20T11:25:10;6.63;81.52
20862;DHT22;10591;52.532;13.348;2023-12-20T11:27:42;6.56;81.65
20862;DHT22;10591;52.532;13.348;2023-12-20T11:30:17;6.56;82.03
20862;DHT22;10591;52.532;13.348;2023-12-20T11:32:48;6.50;82.05
20862;DHT22;10591;52.532;13.348;2023-12-20T11:35:22;6.50;82.33
20862;DHT22;10591;52.532;13.348;2023-12-20T11:37:54;6.44;82.19
20862;DHT22;10591;52.532;13.348;2023-12-20T11:40:24;6.48;81.99
20862;DHT22;10591;52.532;13.348;2023-12-20T11:42:58;6.51;82.28
20862;DHT22;10591;52.532;13.348;2023-12-20T11:45:30;6.66;81.06
20862;DHT22;10591;52.532;13.348;2023-12-20T11:48:02;6.62;81.62
20862;DHT22;10591;52.532;13.348;2023-12-20T11:50:33;6.60;81.92
20862;DHT22;10591;52.532;13.348;2023-12-20T11:53:05;6.55;82.17
20862;DHT22;10591;52.532;13.348;2023-12-20T11:55:37;6.50;82.39
20862;DHT22;10591;52.532;13.348;2023-12-20T11:58:08;6.47;82.53
20862;DHT22;10591;52.532;13.348;2023-12-20T12:00:39;6.60;82.04
20862;DHT22;10591;52.532;13.348;2023-12-20T12:03:10;6.77;81.44
20862;DHT22;10591;52.532;13.348;2023-12-20T12:05:40;6.82;80.93
20862;DHT22;10591;52.532;13.348;2023-12-20T12:08:12;6.97;80.22
20862;DHT22;10591;52.532;13.348;2023-12-20T12:10:45;6.94;80.45
20862;DHT22;10591;52.532;13.348;2023-12-20T12:13:16;6.86;80.82
20862;DHT22;10591;52.532;13.348;2023-12-20T12:15:48;6.80;80.37
20862;DHT22;10591;52.532;13.348;2023-12-20T12:18:19;6.83;80.43
20862;DHT22;10591;52.532;13.348;2023-12-20T12:20:50;6.94;80.26
20862;DHT22;10591;52.532;13.348;2023-12-20T12:23:25;6.93;80.38
20862;DHT22;10591;52.532;13.348;2023-12-20T12:25:59;6.79;80.83
20862;DHT22;10591;52.532;13.348;2023-12-20T12:28:34;6.73;81.39
20862;DHT22;10591;52.532;13.348;2023-12-20T12:31:05;6.57;81.92
20862;DHT22;10591;52.532;13.348;2023-12-20T12:33:37;6.54;82.12
20862;DHT22;10591;52.532;13.348;2023-12-20T12:36:11;6.40;82.87
20862;DHT22;10591;52.532;13.348;2023-12-20T12:38:44;6.37;83.54
20862;DHT22;10591;52.532;13.348;2023-12-20T12:41:15;6.32;83.85
20862;DHT22;10591;52.532;13.348;2023-12-20T12:43:47;6.24;84.59
20862;DHT22;10591;52.532;13.348;2023-12-20T12:46:18;6.16;85.07
20862;DHT22;10591;52.532;13.348;2023-12-20T12:48:50;6.29;84.78
20862;DHT22;10591;52.532;13.348;2023-12-20T12:51:22;6.16;84.96
20862;DHT22;10591;52.532;13.348;2023-12-20T12:53:53;6.18;85.12
20862;DHT22;10591;52.532;13.348;2023-12-20T12:56:24;6.19;85.11
20862;DHT22;10591;52.532;13.348;2023-12-20T12:58:59;6.23;84.98
20862;DHT22;10591;52.532;13.348;2023-12-20T13:01:29;6.17;85.40
20862;DHT22;10591;52.532;13.348;2023-12-20T13:04:00;6.12;85.37
20862;DHT22;10591;52.532;13.348;2023-12-20T13:06:34;6.10;85.77
20862;DHT22;10591;52.532;13.348;2023-12-20T13:09:15;6.24;85.54
20862;DHT22;10591;52.532;13.348;2023-12-20T13:11:45;6.12;86.04
20862;DHT22;10591;52.532;13.348;2023-12-20T13:14:17;6.13;85.59
20862;DHT22;10591;52.532;13.348;2023-12-20T13:16:49;6.06;86.52
20862;DHT22;10591;52.532;13.348;2023-12-20T13:19:22;6.02;86.95
20862;DHT22;10591;52.532;13.348;2023-12-20T13:21:53;5.86;87.63
20862;DHT22;10591;52.532;13.348;2023-12-20T13:24:24;5.68;86.83
20862;DHT22;10591;52.532;13.348;2023-12-20T13:27:00;5.51;86.11
20862;DHT22;10591;52.532;13.348;2023-12-20T13:29:30;5.46;86.12
20862;DHT22;10591;52.532;13.348;2023-12-20T13:32:02;5.43;86.37
20862;DHT22;10591;52.532;13.348;2023-12-20T13:34:33;5.40;86.54
20862;DHT22;10591;52.532;13.348;2023-12-20T13:37:04;5.36;85.81
20862;DHT22;10591;52.532;13.348;2023-12-20T13:39:36;5.32;85.62
20862;DHT22;10591;52.532;13.348;2023-12-20T13:42:09;5.29;85.25
20862;DHT22;10591;52.532;13.348;2023-12-20T13:44:40;5.30;85.23
20862;DHT22;10591;52.532;13.348;2023-12-20T13:47:13;5.36;84.67
20862;DHT22;10591;52.532;13.348;2023-12-20T13:49:46;5.27;84.47
20862;DHT22;10591;52.532;13.348;2023-12-20T13:52:24;5.09;84.98
20862;DHT22;10591;52.532;13.348;2023-12-20T13:55:00;5.10;84.61
20862;DHT22;10591;52.532;13.348;2023-12-20T13:57:31;5.08;85.07
20862;DHT22;10591;52.532;13.348;2023-12-20T14:00:06;4.88;85.85
20862;DHT22;10591;52.532;13.348;2023-12-20T14:02:43;5.00;85.70
20862;DHT22;10591;52.532;13.348;2023-12-20T14:05:14;5.00;85.76
20862;DHT22;10591;52.532;13.348;2023-12-20T14:07:48;4.96;85.75
20862;DHT22;10591;52.532;13.348;2023-12-20T14:10:20;4.96;86.00
20862;DHT22;10591;52.532;13.348;2023-12-20T14:12:51;4.98;86.21
20862;DHT22;10591;52.532;13.348;2023-12-20T14:15:21;4.92;86.04
20862;DHT22;10591;52.532;13.348;2023-12-20T14:17:54;4.92;85.65
20862;DHT22;10591;52.532;13.348;2023-12-20T14:20:27;4.96;85.62
20862;DHT22;10591;52.532;13.348;2023-12-20T14:23:01;4.96;85.64
20862;DHT22;10591;52.532;13.348;2023-12-20T14:25:32;4.94;85.55
20862;DHT22;10591;52.532;13.348;2023-12-20T14:28:04;5.00;85.45
20862;DHT22;10591;52.532;13.348;2023-12-20T14:30:36;5.08;84.38
20862;DHT22;10591;52.532;13.348;2023-12-20T14:33:08;5.14;84.28
20862;DHT22;10591;52.532;13.348;2023-12-20T14:35:40;5.08;85.11
20862;DHT22;10591;52.532;13.348;2023-12-20T14:38:14;5.15;84.13
20862;DHT22;10591;52.532;13.348;2023-12-20T14:40:45;5.25;83.64
20862;DHT22;10591;52.532;13.348;2023-12-20T14:43:17;5.17;83.97
20862;DHT22;10591;52.532;13.348;2023-12-20T14:45:47;5.19;83.44
20862;DHT22;10591;52.532;13.348;2023-12-20T14:48:18;5.28;83.33
20862;DHT22;10591;52.532;13.348;2023-12-20T14:50:51;5.24;83.25
20862;DHT22;10591;52.532;13.348;2023-12-20T14:53:22;5.27;83.21
20862;DHT22;10591;52.532;13.348;2023-12-20T14:55:53;5.24;82.99
20862;DHT22;10591;52.532;13.348;2023-12-20T14:58:23;5.26;82.99
20862;DHT22;10591;52.532;13.348;2023-12-20T15:00:54;5.27;83.14
20862;DHT22;10591;52.532;13.348;2023-12-20T15:03:25;5.19;83.70
20862;DHT22;10591;52.532;13.348;2023-12-20T15:05:58;5.24;83.87
20862;DHT22;10591;52.532;13.348;2023-12-20T15:08:30;5.30;83.80
20862;DHT22;10591;52.532;13.348;2023-12-20T15:11:01;5.26;84.20
20862;DHT22;10591;52.532;13.348;2023-12-20T15:13:33;5.28;84.04
20862;DHT22;10591;52.532;13.348;2023-12-20T15:16:05;5.34;83.94
20862;DHT22;10591;52.532;13.348;2023-12-20T15:18:36;5.30;84.57
20862;DHT22;10591;52.532;13.348;2023-12-20T15:21:07;5.31;84.52
20862;DHT22;10591;52.532;13.348;2023-12-20T15:23:37;5.26;84.56
20862;DHT22;10591;52.532;13.348;2023-12-20T15:26:11;5.20;84.91
20862;DHT22;10591;52.532;13.348;2023-12-20T15:28:42;5.10;84.88
20862;DHT22;10591;52.532;13.348;2023-12-20T15:31:13;5.00;85.02
20862;DHT22;10591;52.532;13.348;2023-12-20T15:33:46;4.96;84.85
20862;DHT22;10591;52.532;13.348;2023-12-20T15:36:17;4.90;85.18
20862;DHT22;10591;52.532;13.348;2023-12-20T15:38:48;4.82;85.41
20862;DHT22;10591;52.532;13.348;2023-12-20T15:41:22;4.80;85.56
20862;DHT22;10591;52.532;13.348;2023-12-20T15:43:54;4.76;85.53
20862;DHT22;10591;52.532;13.348;2023-12-20T15:46:25;4.76;85.60
20862;DHT22;10591;52.532;13.348;2023-12-20T15:48:55;4.71;85.79
20862;DHT22;10591;52.532;13.348;2023-12-20T15:51:27;4.70;85.60
20862;DHT22;10591;52.532;13.348;2023-12-20T15:53:58;4.64;85.72
20862;DHT22;10591;52.532;13.348;2023-12-20T15:56:30;4.69;85.60
20862;DHT22;10591;52.532;13.348;2023-12-20T15:59:02;4.64;85.86
20862;DHT22;10591;52.532;13.348;2023-12-20T16:01:33;4.59;85.63
20862;DHT22;10591;52.532;13.348;2023-12-20T16:04:05;4.62;85.54
20862;DHT22;10591;52.532;13.348;2023-12-20T16:06:36;4.60;85.58